Fargo, ND (58102)

11:21 AM CST on December 26, 2014 (GMT -0600)
Hector International | Change Station
CLOSE
Current Station
Airport
Location: Fargo,
Elevation: 899 ft
Nearby Weather Stations

Elev 899 ft 46.91 °N, 96.81 °W | Updated 28 minutes ago

Overcast
Overcast
26 °F
Feels Like 16 °F
N
12
Wind Variable Wind from North

Today
High -- | Low -- °F
--% Chance of Precip.
Yesterday
High -- | Low -- °F
Precip. -- in
8:11 AM 4:44 PM
Waxing Crescent, 27% visible
Pressure 30.22 in
Visibility 9.0 miles
Clouds Few 1900 ft
Overcast 2600 ft
Windchill 16 °F
Dew Point 19 °F
Humidity 75%
Rainfall 0.00 in
Snow Depth Not available.
UV 0 out of 12
Pollen .10 out of 12
Air Quality Not available.
Flu Activity Not available.
METAR KFAR 261653Z 35010KT 9SM FEW019 OVC026 M03/M07 A3017 RMK AO2 SLP232 T10331072

More Conditions Fewer Conditions

Pressure 30.22 in
Visibility 9.0 miles
Clouds Few 1900 ft
Overcast 2600 ft
Windchill 16 °F
Dew Point 19 °F
Humidity 75%
Rainfall 0.00 in
Snow Depth Not available.
UV 0 out of 12
Pollen .10 out of 12
Air Quality Not available.
Flu Activity Not available.
METAR KFAR 261653Z 35010KT 9SM FEW019 OVC026 M03/M07 A3017 RMK AO2 SLP232 T10331072

More Conditions Fewer Conditions

10-Day Weather Forecast

Almanac

Astronomy

Dec. 26, 2014 Rise Set
Actual Time
Civil Twilight
Nautical Twilight
Astronomical Twilight
Moon
Length of Visible Light
Length of Day
Tomorrow will be .
, % of the Moon is Illuminated

Today's Extremes

State Highs State Lows

Community

WunderPhotos

Upload Photos

1,780,645 photos uploaded!

WunderBlogs® & News

Nearby

Air Quality

  Air Quality AQ Index Pollutant
Not available.

Snow Depth

Station Depth Elevation

Earthquake Activity

City Distance Mag. Time & Date
Minimum magnitude displayed is 2.5.

Coastal Water Temperatures

Place Temperature

Nearby Weather Stations